Aucune alerte pour le moment.

Rapports des METAR proches

 

Si la page ne charge pas complètement les données,

n'hésitez pas à l'actualiser car le chargement peut être long suivant le temps de réponse des metar.

Merci pour votre patience.

 

LFAQ - Bray, France
Distance from station: SSO 19km
Mise à jour: 19/10/2017 02:00
Clair
Clair
 Vent SE
Vent: SE 13 km/h
Température: 13°C
Point de rosée: 11°C
Humidité: 88%
Baromètre: 1011 hPa
Résumé: Clair
Visibility: greater than 10 km
2017/10/19 00:00 LFAQ 190000Z AUTO 13007KT CAVOK 13/11 Q1011
LFQQ - Lille/Lesquin, France
Distance from station: NNE 53km
Mise à jour: 19/10/2017 02:00
Partiellement nuageux
Partiellement nuageux
 Vent ESE
Vent: ESE 4 km/h
Température: 12°C
Point de rosée: 11°C
Humidité: 94%
Baromètre: 1011 hPa
Clouds: Partiellement nuageux
Visibility: 7 km
2017/10/19 00:00 LFQQ 190000Z AUTO 12002KT 7000 NSC 12/11 Q1011 BECMG 2000 BR
EBCV - Chievres Ab, Belgium
Distance from station: NE 88km
Mise à jour: 19/10/2017 01:55
Clair
Clair
 Vent varies
Vent: varies 2 km/h
Température: 12°C
Point de rosée: 10°C
Humidité: 88%
Baromètre: 1012 hPa
Clouds: Clair
Visibility: 10 km
2017/10/18 23:55 EBCV 182355Z AUTO VRB01KT 9999 NCD 12/10 Q1012 BLU
 
LFOB - Beauvais/Tille(A, France
Distance from station: SSO 88km
Mise à jour: 19/10/2017 02:00
Clair
Clair
 Vent ENE
Vent: ENE 4 km/h
Température: 11°C
Point de rosée: 9°C
Humidité: 88%
Baromètre: 1010 hPa
Résumé: Clair
Visibility: greater than 10 km
2017/10/19 00:00 LFOB 190000Z AUTO 07002KT CAVOK 11/09 Q1010 BECMG 3000 BR
LFAT - Le Touquet/P. Pl, France
Distance from station: ONO 93km
Mise à jour: 19/10/2017 02:00
Brume, Partiellement nuageux
Brume, Partiellement nuageux
 Vent ESE
Vent: ESE 9 km/h
Température: 13°C
Point de rosée: 13°C
Humidité: 100%
Baromètre: 1010 hPa
Résumé: Brume
Clouds: Partiellement nuageux
Visibility: 5 km
2017/10/19 00:00 LFAT 190000Z AUTO 12005KT 5000 BR NSC 13/13 Q1010
LFPC - Creil (fafb), France
Distance from station: S 100km
Mise à jour: 01/09/2016 17:00
NOT Current
Clair
Clair
 Vent ONO
Vent: ONO 7 km/h
Température: 24°C
Point de rosée: 13°C
Humidité: 50%
Baromètre: 1023 hPa
Résumé: Clair
Visibility: greater than 10 km
2016/09/01 15:00 LFPC 011500Z AUTO 30004KT 240V350 CAVOK 24/13 Q1023
 
EBFN - Koksijde (bel-Af, Belgium
Distance from station: N 105km
Mise à jour: 19/10/2017 01:55
Brume, Clair
Brume, Clair
 Vent SE
Vent: SE 6 km/h
Température: 11°C
Point de rosée: 11°C
Humidité: 100%
Baromètre: 1011 hPa
Résumé: Brume
Clouds: Clair
Visibility: 3 km
2017/10/18 23:55 EBFN 182355Z AUTO 13003KT 2600 BR NCD 11/11 Q1011 YLO
EBOS - Oostende Airport, Belgium
Distance from station: N 119km
Mise à jour: 19/10/2017 01:50
Brume, Partiellement nuageux
Brume, Partiellement nuageux
 Vent SE
Vent: SE 6 km/h
Température: 12°C
Point de rosée: 11°C
Humidité: 94%
Baromètre: 1011 hPa
Résumé: Brume
Clouds: Partiellement nuageux
Visibility: 3 km
2017/10/18 23:50 EBOS 182350Z 14003KT 3200 BR NSC 12/11 Q1011 TEMPO 2800 BR
EBCI - Charleroi/Gossel, Belgium
Distance from station: ENE 124km
Mise à jour: 19/10/2017 01:50
Clair
Clair
 Vent SSE
Vent: SSE 9 km/h
Température: 13°C
Point de rosée: 11°C
Humidité: 88%
Baromètre: 1012 hPa
Résumé: Clair
Visibility: greater than 10 km
2017/10/18 23:50 EBCI 182350Z 15005KT CAVOK 13/11 Q1012 NOSIG
 
LFPG - Charles De Gaull, France
Distance from station: S 125km
Mise à jour: 19/10/2017 02:00
Clair
Clair
 Vent ESE
Vent: ESE 17 km/h
Température: 15°C
Point de rosée: 11°C
Humidité: 77%
Baromètre: 1010 hPa
Résumé: Clair
Visibility: greater than 10 km
2017/10/19 00:00 LFPG 190000Z 11009KT CAVOK 15/11 Q1010 NOSIG
LFPT - Cormeilles Vexin, France
Distance from station: SSO 127km
Mise à jour: 19/10/2017 02:00
Clair
Clair
 Vent E
Vent: E 15 km/h
Température: 13°C
Point de rosée: 11°C
Humidité: 88%
Baromètre: 1009 hPa
Résumé: Clair
Visibility: greater than 10 km
2017/10/19 00:00 LFPT 190000Z AUTO 09008KT CAVOK 13/11 Q1009
LFPB - Paris/Le Bourget, France
Distance from station: S 132km
Mise à jour: 19/10/2017 02:00
Clair
Clair
 Vent NE
Vent: NE 9 km/h
Température: 13°C
Point de rosée: 11°C
Humidité: 88%
Baromètre: 1010 hPa
Résumé: Clair
Visibility: greater than 10 km
2017/10/19 00:00 LFPB 190000Z AUTO 05005KT CAVOK 13/11 Q1010 NOSIG
 
EBFS - Florennes (bel-A, Belgium
Distance from station: E 133km
Mise à jour: 19/10/2017 01:55
Clair
Clair
 Vent ENE
Vent: ENE 6 km/h
Température: 12°C
Point de rosée: 10°C
Humidité: 88%
Baromètre: 1012 hPa
Clouds: Clair
Visibility: 10 km
2017/10/18 23:55 EBFS 182355Z AUTO 07003KT 9999 NCD 12/10 Q1012 BLU
LFQA - Reims/Prunay, France
Distance from station: SE 143km
Mise à jour: 19/10/2017 02:00
Clair
Clair
 Vent varies
Vent: varies 2 km/h
Température: 9°C
Point de rosée: 9°C
Humidité: 100%
Baromètre: 1011 hPa
Résumé: Clair
Visibility: greater than 10 km
2017/10/19 00:00 LFQA 190000Z AUTO VRB01KT CAVOK 09/09 Q1011
LFOP - Rouen/Boos (aut), France
Distance from station: SO 144km
Mise à jour: 19/10/2017 02:00
Partiellement nuageux
Partiellement nuageux
 Vent E
Vent: E 7 km/h
Température: 11°C
Point de rosée: 11°C
Humidité: 100%
Baromètre: 1009 hPa
Clouds: Partiellement nuageux
Visibility: 6 km
2017/10/19 00:00 LFOP 190000Z AUTO 08004KT 6000 NSC 11/11 Q1009
 
EBBR - Brussels Nationa, Belgium
Distance from station: NE 148km
Mise à jour: 19/10/2017 01:50
Clair
Clair
 Vent S
Vent: S 9 km/h
Température: 13°C
Point de rosée: 11°C
Humidité: 88%
Baromètre: 1012 hPa
Résumé: Clair
Visibility: greater than 10 km
2017/10/18 23:50 EBBR 182350Z 18005KT CAVOK 13/11 Q1012 NOSIG
EBBE - Beauvechain (baf, Belgium
Distance from station: ENE 156km
Mise à jour: 19/10/2017 01:55
Clair
Clair
 Vent varies
Vent: varies 2 km/h
Température: 15°C
Point de rosée: 11°C
Humidité: 77%
Baromètre: 1012 hPa
Clouds: Clair
Visibility: 10 km
2017/10/18 23:55 EBBE 182355Z AUTO VRB01KT 9999 NCD 15/11 Q1012 BLU
EHFS - Vlissingen, Netherlands
Distance from station: NNE 157km
Mise à jour: 19/10/2017 01:55
Clair
Clair
 Vent S
Vent: S 17 km/h
Température: 15°C
Point de rosée: 14°C
Humidité: 94%
Baromètre: 1011 hPa
Clouds: Clair
Visibility: 7 km
2017/10/18 23:55 EHFS 182355Z AUTO 17009KT 7000 NCD 15/14 Q1011
 
LFPV - Villacoublay/Vel, France
Distance from station: SSO 157km
Mise à jour: 19/10/2017 02:00
Clair
Clair
 Vent ESE
Vent: ESE 9 km/h
Température: 15°C
Point de rosée: 11°C
Humidité: 77%
Baromètre: 1010 hPa
Résumé: Clair
Visibility: greater than 10 km
2017/10/19 00:00 LFPV 190000Z AUTO 11005KT CAVOK 15/11 Q1010 NOSIG
EGMD - Lydd Airport, United Kingdom
Distance from station: NO 160km
Mise à jour: 19/10/2017 01:50
Brume, Quelques nuages
Brume, Quelques nuages
 Vent ESE
Vent: ESE 11 km/h
Température: 15°C
Point de rosée: 15°C
Humidité: 100%
Baromètre: 1010 hPa
Résumé: Brume
Clouds: Quelques nuages
Visibility: 2 km
Cloud details: Quelques nuages 914 m
2017/10/18 23:50 EGMD 182350Z AUTO 11006KT 2300 BR FEW030/// 15/15 Q1010